• Join FlightAware (Why Join?)
  • Login
  • US Flag 
04:32AM EST


 

Airport Tracker/Info


-or-


 

Live Flight TrackerFlight Track Log ✈ ASQ5311 ✈ 24-Apr-2014 ✈ KLGA - KBGR

Flight Track Log - Related Links

Times and Time Zones

All times are in EDT time to prevent confusion due to time zone crossing. See the ASQ5311 flight status page for this flight to view local times or setup timezone preferences in your user account.

Time Position Orientation Groundspeed Altitude Reporting Facility
EDT Latitude Longitude Course Direction KTS MPH feet Rate Location/Type
10:34PM 40.8544 -73.7975 36° Northeast 214 246 3,600  Level Boston Center
10:35PM 40.9103 -73.7439 36° Northeast 235 270 6,700 2,820 Climbing Boston Center
10:36PM 40.9717 -73.6944 31° Northeast 253 291 9,300 2,220 Climbing Boston Center
10:37PM 41.0414 -73.6433 29° Northeast 270 311 11,200 1,860 Climbing Boston Center
10:38PM 41.1217 -73.5836 29° Northeast 324 373 13,100 1,920 Climbing Boston Center
10:39PM 41.2044 -73.5228 29° Northeast 338 389 15,200 1,920 Climbing Boston Center
10:40PM 41.2886 -73.4589 30° Northeast 346 398 17,100 1,860 Climbing Boston Center
10:41PM 41.3747 -73.3931 30° Northeast 353 406 19,000 1,800 Climbing Boston Center
10:42PM 41.4589 -73.3306 29° Northeast 354 407 20,800 1,620 Climbing Boston Center
10:43PM 41.5375 -73.2403 41° Northeast 371 427 22,400 1,260 Climbing Boston Center
10:44PM 41.6111 -73.1489 43° Northeast 380 437 23,400 1,020 Climbing Boston Center
10:45PM 41.6931 -73.0467 43° Northeast 398 458 24,500 1,080 Climbing Boston Center
10:46PM 41.7767 -72.9414 43° Northeast 410 472 25,600 1,140 Climbing Boston Center
10:47PM 41.8772 -72.8147 43° Northeast 412 474 26,900 660 Climbing Boston Center
10:48PM 41.9631 -72.7053 43° Northeast 423 487 27,000  Climbing Boston Center
10:49PM 42.0522 -72.5914 43° Northeast 440 506 27,000  Level Boston Center
10:50PM 42.1428 -72.4750 44° Northeast 453 521 27,000  Level Boston Center
10:52PM 42.2347 -72.3589 43° Northeast 454 522 27,000  Level Boston Center
10:53PM 42.3256 -72.2408 44° Northeast 455 524 27,000  Level Boston Center
10:54PM 42.4169 -72.1225 44° Northeast 457 526 27,000  Level Boston Center
10:55PM 42.5072 -72.0039 44° Northeast 457 526 27,000  Level Boston Center
10:56PM 42.5986 -71.8867 43° Northeast 457 526 27,000  Level Boston Center
10:57PM 42.6883 -71.7678 44° Northeast 454 522 27,000  Level Boston Center
10:58PM 42.7781 -71.6492 44° Northeast 453 521 27,000  Level Boston Center
10:59PM 42.8694 -71.5281 44° Northeast 453 521 27,000  Level Boston Center
11:00PM 42.9600 -71.4075 44° Northeast 454 522 27,000  Level Boston Center
11:01PM 43.0681 -71.2653 44° Northeast 452 520 27,000  Level Boston Center
11:02PM 43.1569 -71.1458 44° Northeast 451 519 27,000  Level Boston Center
11:03PM 43.2444 -71.0272 45° Northeast 447 514 27,000  Level Boston Center
11:04PM 43.3294 -70.9117 45° Northeast 434 499 27,000  Level Boston Center
11:05PM 43.4178 -70.7906 45° Northeast 435 501 27,000  Level Boston Center
11:06PM 43.5047 -70.6739 44° Northeast 435 501 27,000  Level Boston Center
11:07PM 43.5906 -70.5544 45° Northeast 435 501 27,000  Level Boston Center
11:08PM 43.6764 -70.4367 45° Northeast 435 501 27,000  Level Boston Center
11:09PM 43.7611 -70.3189 45° Northeast 433 498 27,000  Level Boston Center
11:10PM 43.8467 -70.2017 45° Northeast 433 498 27,000 -420 Level Boston Center
11:11PM 43.9314 -70.0819 45° Northeast 433 498 26,200 -1,140 Descending Boston Center
11:12PM 44.0047 -69.9475 53° Northeast 433 498 24,800 -1,920 Descending Boston Center
11:13PM 44.0742 -69.8047 56° Northeast 442 509 22,400 -2,460 Descending Boston Center
11:14PM 44.1392 -69.6742 55° Northeast 415 478 19,900 -2,460 Descending Boston Center
11:15PM 44.2025 -69.5450 56° Northeast 404 465 17,500 -2,340 Descending Boston Center
11:16PM 44.2672 -69.4153 55° Northeast 409 471 15,200 -2,520 Descending Boston Center
11:17PM 44.3397 -69.3072 47° Northeast 385 443 12,500 -2,340 Descending Boston Center
11:18PM 44.4044 -69.2058 48° Northeast 354 407 10,600 -1,380 Descending Boston Center
11:19PM 44.4583 -69.1222 48° Northeast 294 338 9,700 -1,440 Descending Boston Center
11:20PM 44.5086 -69.0467 47° Northeast 273 314 7,800 -1,860 Descending Boston Center
11:21PM 44.5525 -68.9733 50° Northeast 254 292 6,000 -1,800 Descending Boston Center
11:22PM 44.5972 -68.9067 47° Northeast 240 276 4,200 -1,500 Descending Boston Center
11:23PM 44.6403 -68.8447 46° Northeast 228 262 3,000 -600 Descending Boston Center
11:24PM 44.6842 -68.7869 43° Northeast 220 253 3,000 -300 Level Boston Center
11:25PM 44.7222 -68.7569 29° Northeast 171 197 2,400 -900 Descending Boston Center
11:26PM 44.7572 -68.7647 351° North 137 158 1,300 -1,020 Descending Boston Center
11:27PM 44.7897 -68.8017 321° Northwest 130 150 400 -540 Descending Boston Center
11:28PM 44.8142 -68.8350 316° Northwest 130 150 300 -120 Descending Boston Center
11:30PM 44.8074 -68.8281 90° East  Level Estimated